createdAt,value
2017-07-08T00:00:02.019Z,21.30
2017-07-08T00:05:03.793Z,21.20
2017-07-08T00:10:05.544Z,21.20
2017-07-08T00:15:07.742Z,21.20
2017-07-08T00:20:10.829Z,20.90
2017-07-08T00:25:12.565Z,20.80
2017-07-08T00:30:14.308Z,20.80
2017-07-08T00:35:16.774Z,20.80
2017-07-08T00:40:18.446Z,20.70
2017-07-08T00:45:20.145Z,20.80
2017-07-08T00:50:22.637Z,20.60
2017-07-08T00:55:25.100Z,20.60
2017-07-08T01:00:26.904Z,20.50
2017-07-08T01:05:29.396Z,20.50
2017-07-08T01:10:31.887Z,20.50
2017-07-08T01:15:34.968Z,20.90
2017-07-08T01:20:36.666Z,20.80
2017-07-08T01:25:38.441Z,21.00
2017-07-08T01:30:40.933Z,20.50
2017-07-08T01:35:43.424Z,20.30
2017-07-08T01:40:45.889Z,20.10
2017-07-08T01:45:47.527Z,20.10
2017-07-08T01:50:49.262Z,20.20
2017-07-08T01:55:51.958Z,19.80
2017-07-08T02:00:54.451Z,19.90
2017-07-08T02:05:56.943Z,20.40
2017-07-08T02:10:59.434Z,20.30
2017-07-08T02:16:01.926Z,19.90
2017-07-08T02:21:05.336Z,19.80
2017-07-08T02:26:07.115Z,19.70
2017-07-08T02:31:09.550Z,19.70
2017-07-08T02:36:11.688Z,19.70
2017-07-08T02:41:30.031Z,19.30
2017-07-08T02:46:47.285Z,19.30
2017-07-08T02:52:03.794Z,19.30
2017-07-08T02:57:20.393Z,19.40
2017-07-08T03:02:22.081Z,19.20
2017-07-08T03:07:38.642Z,19.20
2017-07-08T03:12:55.063Z,19.90
2017-07-08T03:18:11.641Z,19.50
2017-07-08T03:23:13.416Z,19.30
2017-07-08T03:28:15.088Z,19.80
2017-07-08T03:33:16.789Z,19.10
2017-07-08T03:38:19.282Z,19.20
2017-07-08T03:43:20.935Z,19.10
2017-07-08T03:48:22.729Z,19.10
2017-07-08T03:53:25.221Z,19.10
2017-07-08T03:58:27.713Z,18.90
2017-07-08T04:03:30.177Z,18.90
2017-07-08T04:08:31.878Z,18.80
2017-07-08T04:13:34.339Z,20.20
2017-07-08T04:18:36.042Z,20.20
2017-07-08T04:23:38.535Z,20.70
2017-07-08T04:28:41.026Z,20.40
2017-07-08T04:33:42.800Z,20.40
2017-07-08T04:38:45.915Z,21.20
2017-07-08T04:43:48.398Z,21.70
2017-07-08T04:48:51.070Z,21.40
2017-07-08T04:53:53.106Z,21.40
2017-07-08T04:58:54.821Z,21.60
2017-07-08T05:03:56.624Z,22.10
2017-07-08T05:08:59.099Z,22.70
2017-07-08T05:14:00.772Z,22.60
2017-07-08T05:19:02.433Z,22.90
2017-07-08T05:24:04.082Z,22.80
2017-07-08T05:29:05.776Z,23.40
2017-07-08T05:34:22.429Z,23.80
2017-07-08T05:39:24.893Z,24.50
2017-07-08T05:44:26.594Z,24.50
2017-07-08T05:49:29.028Z,24.40
2017-07-08T05:54:30.757Z,24.40
2017-07-08T05:59:32.537Z,24.10
2017-07-08T06:04:35.025Z,23.50
2017-07-08T06:09:37.500Z,24.10
2017-07-08T06:14:39.161Z,24.00
2017-07-08T06:19:40.861Z,23.90
2017-07-08T06:24:43.353Z,25.20
2017-07-08T06:29:45.781Z,25.60
2017-07-08T06:34:47.519Z,25.50
2017-07-08T06:39:50.010Z,26.30
2017-07-08T06:44:52.503Z,26.10
2017-07-08T06:49:54.924Z,26.80
2017-07-08T06:54:56.667Z,26.80
2017-07-08T06:59:59.128Z,27.00
2017-07-08T07:05:01.311Z,26.90
2017-07-08T07:10:03.118Z,26.10
2017-07-08T07:15:05.611Z,26.40
2017-07-08T07:20:08.723Z,26.10
2017-07-08T07:25:11.208Z,26.80
2017-07-08T07:30:13.673Z,27.00
2017-07-08T07:35:15.377Z,26.90
2017-07-08T07:40:17.799Z,28.30
2017-07-08T07:45:19.484Z,28.20
2017-07-08T07:50:21.313Z,28.10
2017-07-08T07:55:24.628Z,27.70
2017-07-08T08:00:27.115Z,28.70
2017-07-08T08:05:29.582Z,28.30
2017-07-08T08:10:31.279Z,28.30
2017-07-08T08:15:33.849Z,29.10
2017-07-08T08:20:51.353Z,29.40
2017-07-08T08:25:53.091Z,28.70
2017-07-08T08:30:55.583Z,28.70
2017-07-08T08:35:58.091Z,28.90
2017-07-08T08:40:59.749Z,28.90
2017-07-08T08:46:01.531Z,29.90
2017-07-08T08:51:03.989Z,30.20
2017-07-08T08:56:05.687Z,30.20
2017-07-08T09:01:09.083Z,30.80
2017-07-08T09:06:11.842Z,30.80
2017-07-08T09:11:13.575Z,30.80
2017-07-08T09:16:16.061Z,30.10
2017-07-08T09:21:17.738Z,30.00
2017-07-08T09:26:20.230Z,30.00
2017-07-08T09:31:22.721Z,30.20
2017-07-08T09:36:24.781Z,30.20
2017-07-08T09:41:26.477Z,30.50
2017-07-08T09:46:28.970Z,30.40
2017-07-08T09:51:31.461Z,30.90
2017-07-08T09:56:33.954Z,30.40
2017-07-08T10:01:36.445Z,30.60
2017-07-08T10:06:38.220Z,30.60
2017-07-08T10:11:40.648Z,31.00
2017-07-08T10:16:42.386Z,30.90
2017-07-08T10:21:44.878Z,30.80
2017-07-08T10:26:47.370Z,30.80
2017-07-08T10:31:49.146Z,30.80
2017-07-08T10:36:51.637Z,30.80
2017-07-08T10:41:54.130Z,31.20
2017-07-08T10:47:11.544Z,31.20
2017-07-08T10:52:13.245Z,31.20
2017-07-08T10:57:15.224Z,31.20
2017-07-08T11:02:17.719Z,30.80
2017-07-08T11:07:20.133Z,30.50
2017-07-08T11:12:21.886Z,30.40
2017-07-08T11:17:24.578Z,30.50
2017-07-08T11:22:27.070Z,30.40
2017-07-08T11:27:28.846Z,30.30
2017-07-08T11:32:31.339Z,30.20
2017-07-08T11:37:33.799Z,30.60
2017-07-08T11:42:35.606Z,30.50
2017-07-08T11:47:38.097Z,30.00
2017-07-08T11:52:40.589Z,30.40
2017-07-08T11:57:43.288Z,30.40
2017-07-08T12:02:45.747Z,30.10
2017-07-08T12:07:47.452Z,30.00
2017-07-08T12:12:49.944Z,31.00
2017-07-08T12:17:52.436Z,31.00
2017-07-08T12:22:54.851Z,31.10
2017-07-08T12:27:56.573Z,31.00
2017-07-08T12:32:58.274Z,31.00
2017-07-08T12:38:00.767Z,30.60
2017-07-08T12:43:03.261Z,30.80
2017-07-08T12:48:05.036Z,30.70
2017-07-08T12:53:07.526Z,31.10
2017-07-08T12:58:10.019Z,30.90
2017-07-08T13:03:12.480Z,31.40
2017-07-08T13:08:14.181Z,31.30
2017-07-08T13:13:16.676Z,31.20
2017-07-08T13:18:19.141Z,31.10
2017-07-08T13:23:20.815Z,31.00
2017-07-08T13:28:22.516Z,31.40
2017-07-08T13:33:24.936Z,31.30
2017-07-08T13:38:26.778Z,31.30
2017-07-08T13:43:29.271Z,31.00
2017-07-08T13:48:31.056Z,30.90
2017-07-08T13:53:32.722Z,31.20
2017-07-08T13:58:35.145Z,31.00
2017-07-08T14:03:36.835Z,31.00
2017-07-08T14:08:38.659Z,31.40
2017-07-08T14:13:41.150Z,31.50
2017-07-08T14:18:42.925Z,31.50
2017-07-08T14:23:45.417Z,31.40
2017-07-08T14:28:47.909Z,31.30
2017-07-08T14:33:51.369Z,31.10
2017-07-08T14:38:53.172Z,31.10
2017-07-08T14:43:54.873Z,31.50
2017-07-08T14:48:56.621Z,31.20
2017-07-08T14:53:58.320Z,31.50
2017-07-08T14:59:00.788Z,31.60
2017-07-08T15:04:17.511Z,31.50
2017-07-08T15:09:19.187Z,31.50
2017-07-08T15:14:20.818Z,31.40
2017-07-08T15:19:22.528Z,31.40
2017-07-08T15:24:24.897Z,31.40
2017-07-08T15:29:26.723Z,31.60
2017-07-08T15:34:30.875Z,31.00
2017-07-08T15:39:32.731Z,31.00
2017-07-08T15:44:35.199Z,31.30
2017-07-08T15:49:36.898Z,31.30
2017-07-08T15:54:39.748Z,31.10
2017-07-08T15:59:41.576Z,31.00
2017-07-08T16:04:44.602Z,31.10
2017-07-08T16:09:46.326Z,31.10
2017-07-08T16:14:48.026Z,30.80
2017-07-08T16:19:50.516Z,31.10
2017-07-08T16:24:52.981Z,31.10
2017-07-08T16:29:54.682Z,31.00
2017-07-08T16:34:57.175Z,31.10
2017-07-08T16:39:58.948Z,31.00
2017-07-08T16:45:01.417Z,31.10
2017-07-08T16:50:03.113Z,31.00
2017-07-08T16:55:06.963Z,31.00
2017-07-08T17:00:08.553Z,30.90
2017-07-08T17:05:10.361Z,30.90
2017-07-08T17:10:13.245Z,31.00
2017-07-08T17:15:15.062Z,30.90
2017-07-08T17:20:17.556Z,30.70
2017-07-08T17:25:20.047Z,30.70
2017-07-08T17:30:21.821Z,30.70
2017-07-08T17:35:23.596Z,30.60
2017-07-08T17:40:26.472Z,30.30
2017-07-08T17:45:28.275Z,30.20
2017-07-08T17:50:31.225Z,30.20
2017-07-08T17:55:33.874Z,30.20
2017-07-08T18:00:36.366Z,30.10
2017-07-08T18:05:38.858Z,30.10
2017-07-08T18:10:41.350Z,30.10
2017-07-08T18:15:43.843Z,29.70
2017-07-08T18:20:48.419Z,29.40
2017-07-08T18:25:51.621Z,29.40
2017-07-08T18:30:55.215Z,29.30
2017-07-08T18:35:59.190Z,29.20
2017-07-08T18:41:03.125Z,29.10
2017-07-08T18:46:05.553Z,29.10
2017-07-08T18:51:08.772Z,28.90
2017-07-08T18:56:11.125Z,28.80
2017-07-08T19:01:17.528Z,28.60
2017-07-08T19:06:21.573Z,28.40
2017-07-08T19:11:24.156Z,28.30
2017-07-08T19:16:29.634Z,28.20
2017-07-08T19:21:33.617Z,28.10
2017-07-08T19:26:36.594Z,28.00
2017-07-08T19:31:39.753Z,27.90
2017-07-08T19:36:42.672Z,27.70
2017-07-08T19:41:47.046Z,27.60
2017-07-08T19:46:51.009Z,27.40
2017-07-08T19:51:55.087Z,27.10
2017-07-08T19:56:59.014Z,27.10
2017-07-08T20:02:00.957Z,27.00
2017-07-08T20:07:03.825Z,26.80
2017-07-08T20:12:06.453Z,26.70
2017-07-08T20:17:09.449Z,26.50
2017-07-08T20:22:11.129Z,26.30
2017-07-08T20:27:13.624Z,26.00
2017-07-08T20:32:16.587Z,25.90
2017-07-08T20:37:18.328Z,25.80
2017-07-08T20:42:19.972Z,25.80
2017-07-08T20:47:22.999Z,25.80
2017-07-08T20:52:26.117Z,25.70
2017-07-08T20:57:27.855Z,25.90
2017-07-08T21:02:30.368Z,25.70
2017-07-08T21:07:32.021Z,25.70
2017-07-08T21:12:36.092Z,25.40
2017-07-08T21:17:37.825Z,25.40
2017-07-08T21:22:40.288Z,24.70
2017-07-08T21:27:41.961Z,24.60
2017-07-08T21:32:43.842Z,24.70
2017-07-08T21:37:45.517Z,24.80
2017-07-08T21:42:47.185Z,24.40
2017-07-08T21:47:48.886Z,24.20
2017-07-08T21:52:51.378Z,24.20
2017-07-08T21:57:53.874Z,24.20
2017-07-08T22:02:55.578Z,24.10
2017-07-08T22:07:57.422Z,23.80
2017-07-08T22:12:59.913Z,23.30
2017-07-08T22:18:07.537Z,23.50
2017-07-08T22:23:09.991Z,23.30
2017-07-08T22:28:11.689Z,23.20
2017-07-08T22:33:14.153Z,23.50
2017-07-08T23:58:22.423Z,23.50
